Time;durP1;ratioP1;P1;durP2;ratioP2;P2;SDS_P1;SDS_P2;PMS_P1;PMS_P2;Temp;Humidity;BMP_temperature;BMP_pressure;BME280_temperature;BME280_humidity;BME280_pressure;Samples;Min_cycle;Max_cycle;Signal;HPM_P1;HPM_P2
2023/01/27 00:01:01;;;;;;;;;;;2.40;1.00;;;;;;5036595;28;19916;-75
2023/01/27 00:03:29;;;;;;;;;;;2.40;1.00;;;;;;5036553;28;19909;-75
2023/01/27 00:09:18;;;;;;;;;;;2.50;1.00;;;;;;5037061;28;19972;-88
2023/01/27 00:18:12;;;;;;;;;;;2.40;1.00;;;;;;5026726;28;19921;-88
2023/01/27 00:26:25;;;;;;;;;;;2.50;1.00;;;;;;5028968;28;19932;-88
2023/01/27 00:41:19;;;;;;;;;;;2.50;1.00;;;;;;5030309;28;20035;-88
2023/01/27 00:59:12;;;;;;;;;;;2.50;1.00;;;;;;5032563;28;20479;-88
2023/01/27 01:01:48;;;;;;;;;;;2.50;1.00;;;;;;5018564;28;19920;-88
2023/01/27 01:04:14;;;;;;;;;;;2.50;1.00;;;;;;5018865;28;19909;-76
2023/01/27 01:06:48;;;;;;;;;;;2.50;1.00;;;;;;5028883;28;19917;-75
2023/01/27 01:09:18;;;;;;;;;;;2.50;1.00;;;;;;5035382;28;19917;-75
2023/01/27 01:11:54;;;;;;;;;;;2.50;1.00;;;;;;5035155;28;19913;-75
2023/01/27 01:14:24;;;;;;;;;;;2.50;1.00;;;;;;5035458;28;19917;-76
2023/01/27 01:16:50;;;;;;;;;;;2.60;1.00;;;;;;5035447;28;19913;-75
2023/01/27 01:19:16;;;;;;;;;;;2.60;1.00;;;;;;5035687;28;19932;-77
2023/01/27 01:21:41;;;;;;;;;;;2.50;1.00;;;;;;5035775;28;19960;-75
2023/01/27 01:24:07;;;;;;;;;;;2.50;1.00;;;;;;5035160;28;20331;-76
2023/01/27 01:26:32;;;;;;;;;;;2.60;1.00;;;;;;5035220;28;20016;-75
2023/01/27 01:29:00;;;;;;;;;;;2.60;1.00;;;;;;5035143;28;19917;-75
2023/01/27 01:31:26;;;;;;;;;;;2.60;1.00;;;;;;5034612;28;19996;-75
2023/01/27 01:33:51;;;;;;;;;;;2.60;1.00;;;;;;5035140;28;20008;-75
2023/01/27 01:36:24;;;;;;;;;;;2.60;1.00;;;;;;5009666;28;19913;-75
2023/01/27 01:38:55;;;;;;;;;;;2.60;1.00;;;;;;5031813;28;19948;-75
2023/01/27 01:41:42;;;;;;;;;;;2.70;1.00;;;;;;5035027;28;19909;-75
2023/01/27 01:44:20;;;;;;;;;;;2.70;1.00;;;;;;5034733;28;19913;-75
2023/01/27 01:46:48;;;;;;;;;;;2.70;1.00;;;;;;5031477;28;19924;-76
2023/01/27 01:49:15;;;;;;;;;;;2.70;1.00;;;;;;5024953;28;19963;-76
2023/01/27 01:52:00;;;;;;;;;;;2.70;1.00;;;;;;5035809;28;20000;-88
2023/01/27 01:54:28;;;;;;;;;;;2.80;1.00;;;;;;5035613;28;20012;-88
2023/01/27 01:57:00;;;;;;;;;;;2.80;1.00;;;;;;5035306;28;19920;-88
2023/01/27 02:02:30;;;;;;;;;;;2.80;1.00;;;;;;5027103;28;19916;-88
2023/01/27 02:05:18;;;;;;;;;;;2.80;1.00;;;;;;5035616;28;19910;-88
2023/01/27 02:07:46;;;;;;;;;;;2.80;1.00;;;;;;5034229;28;19919;-88
2023/01/27 02:19:31;;;;;;;;;;;2.90;1.00;;;;;;5034229;28;19932;-88
2023/01/27 02:22:18;;;;;;;;;;;2.90;1.00;;;;;;5016761;28;19924;-75
2023/01/27 02:24:56;;;;;;;;;;;2.90;1.00;;;;;;5021630;28;19909;-75
2023/01/27 02:27:22;;;;;;;;;;;3.00;1.00;;;;;;5034123;28;20487;-75
2023/01/27 02:29:48;;;;;;;;;;;3.00;1.00;;;;;;5034113;28;19909;-75
2023/01/27 02:32:30;;;;;;;;;;;3.00;1.00;;;;;;5033689;28;20023;-75
2023/01/27 02:34:56;;;;;;;;;;;3.00;1.00;;;;;;5034538;28;19966;-76
2023/01/27 02:37:22;;;;;;;;;;;3.00;1.00;;;;;;5033963;28;19913;-75
2023/01/27 02:40:01;;;;;;;;;;;3.00;1.00;;;;;;5033879;28;19956;-75
2023/01/27 02:42:30;;;;;;;;;;;3.00;1.00;;;;;;5033334;28;19913;-75
2023/01/27 02:44:56;;;;;;;;;;;3.10;1.00;;;;;;5034195;28;19916;-75
2023/01/27 02:47:30;;;;;;;;;;;3.10;1.00;;;;;;5033868;28;19938;-76
2023/01/27 02:50:00;;;;;;;;;;;3.00;1.00;;;;;;5033849;28;19909;-77
2023/01/27 02:52:26;;;;;;;;;;;3.00;1.00;;;;;;5033702;28;19921;-75
2023/01/27 02:54:54;;;;;;;;;;;3.00;1.00;;;;;;5030629;28;19917;-75
2023/01/27 02:57:54;;;;;;;;;;;3.00;1.00;;;;;;5033217;28;19916;-75
2023/01/27 03:00:20;;;;;;;;;;;2.90;1.00;;;;;;5028502;28;19909;-75
2023/01/27 03:02:48;;;;;;;;;;;2.90;1.00;;;;;;5039550;28;19959;-75
2023/01/27 03:05:14;;;;;;;;;;;2.90;1.00;;;;;;5040617;28;19910;-76
2023/01/27 03:07:42;;;;;;;;;;;2.90;1.00;;;;;;5039967;28;19932;-75
2023/01/27 03:10:09;;;;;;;;;;;2.90;1.00;;;;;;5040326;28;19924;-75
2023/01/27 03:12:36;;;;;;;;;;;2.90;1.00;;;;;;5031103;28;20360;-75
2023/01/27 03:18:08;;;;;;;;;;;3.00;1.00;;;;;;5037373;28;19963;-75
2023/01/27 03:20:34;;;;;;;;;;;3.00;1.00;;;;;;5040587;28;20332;-75
2023/01/27 03:22:59;;;;;;;;;;;3.00;1.00;;;;;;5039784;28;19940;-75
2023/01/27 03:25:25;;;;;;;;;;;3.00;1.00;;;;;;5039465;28;19912;-75
2023/01/27 03:28:01;;;;;;;;;;;3.00;1.00;;;;;;5040056;28;19909;-75
2023/01/27 03:30:29;;;;;;;;;;;3.00;1.00;;;;;;5038919;28;19958;-76
2023/01/27 03:32:55;;;;;;;;;;;3.00;1.00;;;;;;5020675;28;20000;-75
2023/01/27 03:47:24;;;;;;;;;;;3.10;1.00;;;;;;5028884;28;19963;-88
2023/01/27 03:53:24;;;;;;;;;;;3.00;1.00;;;;;;5040469;28;19990;-88
2023/01/27 04:08:03;;;;;;;;;;;3.00;1.00;;;;;;5039857;28;19935;-76
2023/01/27 04:10:29;;;;;;;;;;;3.00;1.00;;;;;;5030088;28;20356;-75
2023/01/27 04:12:55;;;;;;;;;;;3.00;1.00;;;;;;5034309;28;19962;-75
2023/01/27 04:15:21;;;;;;;;;;;3.00;1.00;;;;;;5036763;28;19909;-75
2023/01/27 04:17:46;;;;;;;;;;;3.10;1.00;;;;;;5036641;28;19998;-75
2023/01/27 04:20:12;;;;;;;;;;;3.10;1.00;;;;;;5036564;28;19913;-76
2023/01/27 04:22:42;;;;;;;;;;;3.00;1.00;;;;;;5036484;28;20325;-75
2023/01/27 04:25:08;;;;;;;;;;;3.10;1.00;;;;;;5036138;28;19909;-76
2023/01/27 04:27:34;;;;;;;;;;;3.10;1.00;;;;;;5018818;28;19932;-74
2023/01/27 04:30:00;;;;;;;;;;;3.10;1.00;;;;;;5035941;28;19913;-75
2023/01/27 04:32:30;;;;;;;;;;;3.10;1.00;;;;;;5035930;28;19916;-75
2023/01/27 04:35:12;;;;;;;;;;;3.10;1.00;;;;;;5035908;28;19967;-75
2023/01/27 04:37:54;;;;;;;;;;;3.10;1.00;;;;;;5017045;28;19909;-76
2023/01/27 04:40:20;;;;;;;;;;;3.10;1.00;;;;;;5014686;28;19913;-76
2023/01/27 04:42:51;;;;;;;;;;;3.10;1.00;;;;;;5032199;28;20319;-75
2023/01/27 04:45:18;;;;;;;;;;;3.10;1.00;;;;;;5033189;28;19935;-75
2023/01/27 04:47:44;;;;;;;;;;;3.10;1.00;;;;;;5017462;28;19913;-75
2023/01/27 04:50:24;;;;;;;;;;;3.10;1.00;;;;;;5035852;28;19913;-76
2023/01/27 04:52:54;;;;;;;;;;;3.10;1.00;;;;;;5035930;28;19910;-76
2023/01/27 04:55:20;;;;;;;;;;;3.10;1.00;;;;;;5024610;28;19917;-75
2023/01/27 04:57:49;;;;;;;;;;;3.10;1.00;;;;;;5035584;28;19909;-75
2023/01/27 05:00:19;;;;;;;;;;;3.10;1.00;;;;;;5030904;28;19909;-76
2023/01/27 05:02:44;;;;;;;;;;;3.20;1.00;;;;;;5012601;28;19928;-77
2023/01/27 05:05:10;;;;;;;;;;;3.20;1.00;;;;;;5017288;28;19934;-78
2023/01/27 05:07:49;;;;;;;;;;;3.20;1.00;;;;;;5035213;28;19920;-79
2023/01/27 05:10:36;;;;;;;;;;;3.30;1.00;;;;;;4998243;28;20249;-78
2023/01/27 05:13:06;;;;;;;;;;;3.30;1.00;;;;;;5031271;28;19913;-78
2023/01/27 05:15:32;;;;;;;;;;;3.40;1.00;;;;;;5035384;28;19910;-78
2023/01/27 05:18:13;;;;;;;;;;;3.40;1.00;;;;;;5030689;28;19913;-78
2023/01/27 05:20:39;;;;;;;;;;;3.40;1.00;;;;;;5033473;28;19913;-79
2023/01/27 05:25:55;;;;;;;;;;;3.40;1.00;;;;;;5032711;28;19956;-78
2023/01/27 05:28:38;;;;;;;;;;;3.40;1.00;;;;;;5017199;28;19967;-78
2023/01/27 05:31:20;;;;;;;;;;;3.30;1.00;;;;;;5026160;28;19909;-78
2023/01/27 05:33:49;;;;;;;;;;;3.40;1.00;;;;;;5034670;28;20586;-78
2023/01/27 05:36:20;;;;;;;;;;;3.40;1.00;;;;;;5031474;28;19913;-79
2023/01/27 05:41:48;;;;;;;;;;;3.30;1.00;;;;;;5035110;28;19924;-85
2023/01/27 05:44:25;;;;;;;;;;;3.30;1.00;;;;;;5017413;28;19913;-85
2023/01/27 05:47:07;;;;;;;;;;;3.30;1.00;;;;;;5025021;28;20321;-85
2023/01/27 05:52:43;;;;;;;;;;;3.20;1.00;;;;;;5034333;28;20288;-79
2023/01/27 05:55:36;;;;;;;;;;;3.20;1.00;;;;;;5016896;28;20283;-78
2023/01/27 05:58:07;;;;;;;;;;;3.30;1.00;;;;;;5034535;28;19916;-78
2023/01/27 06:00:55;;;;;;;;;;;3.30;1.00;;;;;;5034208;28;19919;-80
2023/01/27 06:03:21;;;;;;;;;;;3.30;1.00;;;;;;5035590;28;20407;-79
2023/01/27 06:05:56;;;;;;;;;;;3.30;1.00;;;;;;5016867;28;20402;-80
2023/01/27 06:08:25;;;;;;;;;;;3.30;1.00;;;;;;5034404;28;19948;-80
2023/01/27 06:11:01;;;;;;;;;;;3.30;1.00;;;;;;5034453;28;19916;-79
2023/01/27 06:13:34;;;;;;;;;;;3.30;1.00;;;;;;5012522;28;19917;-79
2023/01/27 06:16:19;;;;;;;;;;;3.40;1.00;;;;;;5016536;28;19916;-79
2023/01/27 06:19:01;;;;;;;;;;;3.30;1.00;;;;;;5016639;28;19909;-80
2023/01/27 06:22:01;;;;;;;;;;;3.30;1.00;;;;;;5034620;28;20379;-79
2023/01/27 06:24:30;;;;;;;;;;;3.40;1.00;;;;;;5019765;28;19924;-86
2023/01/27 06:27:30;;;;;;;;;;;3.40;1.00;;;;;;5017167;28;19909;-86
2023/01/27 06:29:56;;;;;;;;;;;3.40;1.00;;;;;;5025218;28;19916;-86
2023/01/27 06:32:25;;;;;;;;;;;3.40;1.00;;;;;;5014650;28;20000;-86
2023/01/27 06:37:53;;;;;;;;;;;3.40;1.00;;;;;;5034521;28;19959;-79
2023/01/27 06:40:43;;;;;;;;;;;3.40;1.00;;;;;;5033904;28;20285;-79
2023/01/27 06:43:12;;;;;;;;;;;3.40;1.00;;;;;;5008202;28;19909;-79
2023/01/27 06:45:38;;;;;;;;;;;3.40;1.00;;;;;;5033942;28;19913;-79
2023/01/27 06:48:13;;;;;;;;;;;3.40;1.00;;;;;;5020494;28;20369;-79
2023/01/27 06:50:43;;;;;;;;;;;3.40;1.00;;;;;;5033816;28;19955;-80
2023/01/27 06:53:13;;;;;;;;;;;3.40;1.00;;;;;;5016512;28;19952;-79
2023/01/27 06:55:43;;;;;;;;;;;3.40;1.00;;;;;;5033959;28;19910;-80
2023/01/27 06:58:13;;;;;;;;;;;3.40;1.00;;;;;;5015884;28;20370;-80
2023/01/27 07:00:43;;;;;;;;;;;3.50;1.00;;;;;;5015980;28;19909;-79
2023/01/27 07:03:19;;;;;;;;;;;3.50;1.00;;;;;;5033316;28;19917;-79
2023/01/27 07:05:49;;;;;;;;;;;3.40;1.00;;;;;;5033488;28;20349;-79
2023/01/27 07:08:14;;;;;;;;;;;3.50;1.00;;;;;;5034051;28;19909;-86
2023/01/27 07:10:55;;;;;;;;;;;3.50;1.00;;;;;;5016813;28;20277;-86
2023/01/27 07:13:25;;;;;;;;;;;3.60;1.00;;;;;;5015366;28;20365;-87
2023/01/27 07:16:18;;;;;;;;;;;3.60;1.00;;;;;;5016558;28;19910;-86
2023/01/27 07:22:01;;;;;;;;;;;3.60;1.00;;;;;;5021855;28;19916;-87
2023/01/27 07:24:31;;;;;;;;;;;3.60;1.00;;;;;;5016596;28;19960;-86
2023/01/27 07:27:01;;;;;;;;;;;3.60;1.00;;;;;;5000494;28;19917;-84
2023/01/27 07:29:37;;;;;;;;;;;3.70;1.00;;;;;;5000269;28;19966;-86
2023/01/27 07:32:02;;;;;;;;;;;3.70;1.00;;;;;;5032879;28;19909;-86
2023/01/27 07:34:37;;;;;;;;;;;3.70;1.00;;;;;;5033385;28;19940;-86
2023/01/27 07:37:07;;;;;;;;;;;3.70;1.00;;;;;;5016646;28;19909;-86
2023/01/27 07:39:37;;;;;;;;;;;3.70;1.00;;;;;;5022035;28;19914;-87
2023/01/27 07:42:07;;;;;;;;;;;3.70;1.00;;;;;;5016609;28;19909;-87
2023/01/27 07:44:36;;;;;;;;;;;3.70;1.00;;;;;;5034283;28;19941;-86
2023/01/27 07:47:07;;;;;;;;;;;3.70;1.00;;;;;;5020086;28;19917;-86
2023/01/27 07:53:01;;;;;;;;;;;3.80;1.00;;;;;;5037422;28;19919;-85
2023/01/27 07:55:37;;;;;;;;;;;3.80;1.00;;;;;;5027059;28;19920;-77
2023/01/27 07:58:02;;;;;;;;;;;3.80;1.00;;;;;;5036212;28;19919;-76
2023/01/27 08:00:49;;;;;;;;;;;3.80;1.00;;;;;;5036850;28;20007;-76
2023/01/27 08:03:31;;;;;;;;;;;3.90;1.00;;;;;;5036036;28;20007;-77
2023/01/27 08:06:05;;;;;;;;;;;3.90;1.00;;;;;;5034177;28;19913;-75
2023/01/27 08:08:37;;;;;;;;;;;4.30;1.00;;;;;;5023056;28;19952;-86
2023/01/27 08:11:37;;;;;;;;;;;4.60;1.00;;;;;;5000095;28;20447;-86
2023/01/27 08:17:07;;;;;;;;;;;5.70;1.00;;;;;;5023193;28;19955;-87
2023/01/27 08:20:07;;;;;;;;;;;5.80;1.00;;;;;;5015616;28;19974;-86
2023/01/27 08:28:55;;;;;;;;;;;5.90;1.00;;;;;;5036757;28;19917;-89
2023/01/27 08:31:42;;;;;;;;;;;5.80;1.00;;;;;;5036674;28;20323;-89
2023/01/27 08:34:13;;;;;;;;;;;5.70;1.00;;;;;;5033967;28;19917;-89
2023/01/27 08:39:55;;;;;;;;;;;5.60;1.00;;;;;;5036813;28;19915;-90
2023/01/27 08:42:25;;;;;;;;;;;5.60;1.00;;;;;;5014773;28;19913;-90
2023/01/27 08:45:13;;;;;;;;;;;5.60;1.00;;;;;;5006427;28;19909;-90
2023/01/27 08:50:42;;;;;;;;;;;5.40;1.00;;;;;;5017926;28;19920;-89
2023/01/27 08:53:08;;;;;;;;;;;5.30;1.00;;;;;;5018692;28;19910;-88
2023/01/27 08:55:54;;;;;;;;;;;5.30;1.00;;;;;;5016692;28;20004;-89
2023/01/27 09:10:43;;;;;;;;;;;4.90;1.00;;;;;;5027832;28;19940;-76
2023/01/27 09:13:11;;;;;;;;;;;4.80;1.00;;;;;;5015479;28;20001;-76
2023/01/27 09:15:37;;;;;;;;;;;4.80;1.00;;;;;;5030428;28;19913;-76
2023/01/27 09:18:03;;;;;;;;;;;4.80;1.00;;;;;;5035528;28;19989;-76
2023/01/27 09:20:29;;;;;;;;;;;4.70;1.00;;;;;;5035609;28;20283;-76
2023/01/27 09:23:01;;;;;;;;;;;4.80;1.00;;;;;;5035596;28;19913;-77
2023/01/27 09:25:26;;;;;;;;;;;4.80;1.00;;;;;;5036172;28;19916;-89
2023/01/27 09:28:24;;;;;;;;;;;4.80;1.00;;;;;;5018499;28;19909;-89
2023/01/27 09:33:55;;;;;;;;;;;4.80;1.00;;;;;;5034602;28;19920;-89
2023/01/27 09:39:25;;;;;;;;;;;4.90;1.00;;;;;;5033420;28;19917;-76
2023/01/27 09:41:53;;;;;;;;;;;4.90;1.00;;;;;;5035107;28;19959;-76
2023/01/27 09:44:30;;;;;;;;;;;4.90;1.00;;;;;;5034827;28;20312;-77
2023/01/27 09:50:07;;;;;;;;;;;4.80;1.00;;;;;;5031023;28;20395;-76
2023/01/27 09:52:39;;;;;;;;;;;4.70;1.00;;;;;;5034925;28;19952;-77
2023/01/27 09:55:25;;;;;;;;;;;4.80;1.00;;;;;;5017821;28;19913;-89
2023/01/27 10:04:04;;;;;;;;;;;4.80;1.00;;;;;;5035065;28;19958;-89
2023/01/27 10:06:48;;;;;;;;;;;4.90;1.00;;;;;;5015881;28;19916;-89
2023/01/27 10:09:37;;;;;;;;;;;4.90;1.00;;;;;;5001362;28;19913;-78
2023/01/27 10:12:13;;;;;;;;;;;4.80;1.00;;;;;;5025710;28;19967;-78
2023/01/27 10:17:41;;;;;;;;;;;4.90;1.00;;;;;;5029471;28;20019;-74
2023/01/27 10:20:12;;;;;;;;;;;5.10;1.00;;;;;;5028026;28;20380;-73
2023/01/27 10:22:41;;;;;;;;;;;5.40;1.00;;;;;;5033914;28;19917;-74
2023/01/27 10:25:13;;;;;;;;;;;5.90;1.00;;;;;;5032351;28;20003;-74
2023/01/27 10:27:45;;;;;;;;;;;6.40;1.00;;;;;;5027189;28;20343;-75
2023/01/27 10:30:17;;;;;;;;;;;6.60;1.00;;;;;;5016044;28;19913;-74
2023/01/27 10:32:53;;;;;;;;;;;6.70;1.00;;;;;;5021450;28;19909;-74
2023/01/27 10:35:30;;;;;;;;;;;6.60;1.00;;;;;;5032857;28;19913;-74
2023/01/27 10:38:13;;;;;;;;;;;6.90;1.00;;;;;;5025414;28;20427;-74
2023/01/27 10:44:00;;;;;;;;;;;7.40;1.00;;;;;;5017893;28;20380;-87
2023/01/27 10:52:41;;;;;;;;;;;7.60;1.00;;;;;;5034132;28;19955;-88
2023/01/27 10:58:13;;;;;;;;;;;7.80;1.00;;;;;;5023757;28;19917;-87
2023/01/27 11:00:41;;;;;;;;;;;7.50;1.00;;;;;;5017181;28;20281;-87
2023/01/27 11:09:16;;;;;;;;;;;7.60;1.00;;;;;;5028420;28;19967;-87
2023/01/27 11:17:51;;;;;;;;;;;7.40;1.00;;;;;;5034117;28;19916;-87
2023/01/27 11:26:41;;;;;;;;;;;7.50;1.00;;;;;;5036359;28;19959;-74
2023/01/27 11:29:22;;;;;;;;;;;7.50;1.00;;;;;;5025913;28;19920;-73
2023/01/27 11:32:02;;;;;;;;;;;7.30;1.00;;;;;;5035886;28;20435;-74
2023/01/27 11:34:46;;;;;;;;;;;7.20;1.00;;;;;;5035073;28;19913;-74
2023/01/27 11:37:29;;;;;;;;;;;7.30;1.00;;;;;;5029553;28;19913;-74
2023/01/27 11:39:55;;;;;;;;;;;7.30;1.00;;;;;;5036716;28;19909;-81
2023/01/27 11:42:29;;;;;;;;;;;7.40;1.00;;;;;;5030611;28;19913;-87
2023/01/27 11:51:25;;;;;;;;;;;7.40;1.00;;;;;;5027774;28;19947;-87
2023/01/27 11:57:13;;;;;;;;;;;7.40;1.00;;;;;;5050375;28;20283;-87
2023/01/27 11:59:44;;;;;;;;;;;7.30;1.00;;;;;;5057431;28;19916;-87
2023/01/27 12:05:13;;;;;;;;;;;7.20;1.00;;;;;;5024255;28;20407;-87
2023/01/27 12:08:01;;;;;;;;;;;7.30;1.00;;;;;;5037357;28;19909;-86
2023/01/27 12:10:49;;;;;;;;;;;7.20;1.00;;;;;;5037544;28;19913;-87
2023/01/27 12:13:25;;;;;;;;;;;7.10;1.00;;;;;;5037169;28;19959;-87
2023/01/27 12:19:23;;;;;;;;;;;6.90;1.00;;;;;;5033021;28;19924;-88
2023/01/27 12:22:27;;;;;;;;;;;7.20;1.00;;;;;;5037000;28;19917;-80
2023/01/27 12:25:13;;;;;;;;;;;7.10;1.00;;;;;;4956458;29;19930;-80
2023/01/27 12:27:40;;;;;;;;;;;7.10;1.00;;;;;;4956330;29;20009;-77
2023/01/27 12:30:12;;;;;;;;;;;7.40;1.00;;;;;;4956065;29;20358;-78
2023/01/27 12:32:44;;;;;;;;;;;7.40;1.00;;;;;;4968297;28;19957;-77
2023/01/27 12:35:37;;;;;;;;;;;7.40;1.00;;;;;;4939942;29;19915;-78
2023/01/27 12:38:20;;;;;;;;;;;7.30;1.00;;;;;;4939708;29;20009;-79
2023/01/27 12:40:46;;;;;;;;;;;7.30;1.00;;;;;;4956093;29;19923;-80
2023/01/27 12:43:19;;;;;;;;;;;7.30;1.00;;;;;;4955891;29;19911;-81
2023/01/27 12:46:00;;;;;;;;;;;7.30;1.00;;;;;;4955954;29;20255;-81
2023/01/27 12:48:43;;;;;;;;;;;7.10;1.00;;;;;;4956016;29;19911;-81
2023/01/27 12:54:16;;;;;;;;;;;7.00;1.00;;;;;;4955304;28;19941;-83
2023/01/27 12:56:50;;;;;;;;;;;7.10;1.00;;;;;;5031116;28;20280;-83
2023/01/27 12:59:17;;;;;;;;;;;7.10;1.00;;;;;;5016569;28;19920;-82
2023/01/27 13:02:19;;;;;;;;;;;7.00;1.00;;;;;;5027851;28;19916;-83
2023/01/27 13:04:54;;;;;;;;;;;7.00;1.00;;;;;;5026009;28;19949;-82
2023/01/27 13:07:55;;;;;;;;;;;6.80;1.00;;;;;;5034954;28;19909;-82
2023/01/27 13:10:31;;;;;;;;;;;6.80;1.00;;;;;;5020448;28;19917;-82
2023/01/27 13:13:01;;;;;;;;;;;6.70;1.00;;;;;;5015816;28;20012;-76
2023/01/27 13:15:28;;;;;;;;;;;6.70;1.00;;;;;;5029674;28;19918;-76
2023/01/27 13:17:57;;;;;;;;;;;6.70;1.00;;;;;;5029148;28;19909;-76
2023/01/27 13:20:55;;;;;;;;;;;6.80;1.00;;;;;;5034691;28;20352;-76
2023/01/27 13:23:43;;;;;;;;;;;7.00;1.00;;;;;;5030747;28;20009;-76
2023/01/27 13:26:15;;;;;;;;;;;7.30;1.00;;;;;;5035523;28;19913;-82
2023/01/27 13:29:13;;;;;;;;;;;7.30;1.00;;;;;;5034675;28;20288;-83
2023/01/27 13:31:43;;;;;;;;;;;7.40;1.00;;;;;;5024475;28;19917;-81
2023/01/27 13:34:25;;;;;;;;;;;7.30;1.00;;;;;;5034935;28;19921;-81
2023/01/27 13:36:55;;;;;;;;;;;7.10;1.00;;;;;;5029445;28;20261;-78
2023/01/27 13:39:49;;;;;;;;;;;7.00;1.00;;;;;;5021644;28;19916;-79
2023/01/27 13:42:19;;;;;;;;;;;7.00;1.00;;;;;;5035090;28;19932;-79
2023/01/27 13:44:48;;;;;;;;;;;6.90;1.00;;;;;;5023371;28;20276;-79
2023/01/27 13:50:34;;;;;;;;;;;6.90;1.00;;;;;;5034659;28;19919;-76
2023/01/27 13:53:09;;;;;;;;;;;6.90;1.00;;;;;;5022721;28;19909;-77
2023/01/27 13:55:45;;;;;;;;;;;6.80;1.00;;;;;;5021622;28;20530;-77
2023/01/27 13:58:24;;;;;;;;;;;6.80;1.00;;;;;;5025861;28;20364;-79
2023/01/27 14:01:01;;;;;;;;;;;6.80;1.00;;;;;;5034374;28;19915;-79
2023/01/27 14:03:37;;;;;;;;;;;6.70;1.00;;;;;;5021182;28;20288;-81
2023/01/27 14:06:02;;;;;;;;;;;6.70;1.00;;;;;;5034555;28;20017;-81
2023/01/27 14:08:48;;;;;;;;;;;6.70;1.00;;;;;;5017030;28;20353;-80
2023/01/27 14:11:37;;;;;;;;;;;6.70;1.00;;;;;;5034487;28;20276;-80
2023/01/27 14:14:25;;;;;;;;;;;6.70;1.00;;;;;;5034388;28;19913;-79
2023/01/27 14:17:25;;;;;;;;;;;6.80;1.00;;;;;;5034197;28;19917;-78
2023/01/27 14:20:09;;;;;;;;;;;6.80;1.00;;;;;;4953351;29;20001;-79
2023/01/27 14:23:01;;;;;;;;;;;6.80;1.00;;;;;;4949851;29;19957;-78
2023/01/27 14:25:43;;;;;;;;;;;6.70;1.00;;;;;;4954142;29;19914;-79
2023/01/27 14:28:31;;;;;;;;;;;6.60;1.00;;;;;;4936337;29;19918;-82
2023/01/27 14:31:10;;;;;;;;;;;6.60;1.00;;;;;;4953855;29;19921;-79
2023/01/27 14:33:37;;;;;;;;;;;6.60;1.00;;;;;;4937643;29;20013;-79
2023/01/27 14:36:16;;;;;;;;;;;6.60;1.00;;;;;;4953827;29;20335;-79
2023/01/27 14:39:07;;;;;;;;;;;6.60;1.00;;;;;;4942524;29;19911;-79
2023/01/27 14:41:43;;;;;;;;;;;6.50;1.00;;;;;;4938110;29;19911;-80
2023/01/27 14:44:31;;;;;;;;;;;6.40;1.00;;;;;;4937791;29;20313;-80
2023/01/27 14:50:02;;;;;;;;;;;6.30;1.00;;;;;;4947812;29;19921;-79
2023/01/27 14:52:49;;;;;;;;;;;6.10;1.00;;;;;;4953589;29;19914;-80
2023/01/27 14:55:33;;;;;;;;;;;6.00;1.00;;;;;;4948647;28;19915;-80
2023/01/27 14:58:25;;;;;;;;;;;6.00;1.00;;;;;;5034011;28;19909;-79
2023/01/27 15:01:01;;;;;;;;;;;6.00;1.00;;;;;;5020345;28;19967;-79
2023/01/27 15:03:39;;;;;;;;;;;6.00;1.00;;;;;;5001155;28;19917;-79
2023/01/27 15:06:25;;;;;;;;;;;6.10;1.00;;;;;;5033913;28;20283;-79
2023/01/27 15:12:13;;;;;;;;;;;6.10;1.00;;;;;;5032924;28;20327;-79
2023/01/27 15:14:41;;;;;;;;;;;6.10;1.00;;;;;;5033583;28;19952;-80
2023/01/27 15:17:37;;;;;;;;;;;6.10;1.00;;;;;;5033411;28;19917;-80
2023/01/27 15:20:19;;;;;;;;;;;6.10;1.00;;;;;;5009800;28;19960;-80
2023/01/27 15:22:49;;;;;;;;;;;6.10;1.00;;;;;;5024550;28;20295;-80
2023/01/27 15:25:37;;;;;;;;;;;6.10;1.00;;;;;;5021915;28;20277;-82
2023/01/27 15:28:15;;;;;;;;;;;6.00;1.00;;;;;;5021373;28;20003;-79
2023/01/27 15:31:09;;;;;;;;;;;6.00;1.00;;;;;;5033403;28;19913;-78
2023/01/27 15:34:01;;;;;;;;;;;5.90;1.00;;;;;;4953241;29;20424;-79
2023/01/27 15:36:49;;;;;;;;;;;5.90;1.00;;;;;;4953245;29;19926;-78
2023/01/27 15:39:43;;;;;;;;;;;5.80;1.00;;;;;;4936485;29;20005;-78
2023/01/27 15:42:13;;;;;;;;;;;5.70;1.00;;;;;;4937404;29;19926;-78
2023/01/27 15:44:49;;;;;;;;;;;5.70;1.00;;;;;;4953159;29;19911;-79
2023/01/27 15:47:27;;;;;;;;;;;5.70;1.00;;;;;;4953493;29;19973;-78
2023/01/27 15:50:13;;;;;;;;;;;5.70;1.00;;;;;;4937124;29;19910;-79
2023/01/27 15:52:43;;;;;;;;;;;5.70;1.00;;;;;;4953254;29;20467;-79
2023/01/27 15:55:33;;;;;;;;;;;5.70;1.00;;;;;;4952633;29;19950;-79
2023/01/27 15:58:08;;;;;;;;;;;5.70;1.00;;;;;;4947975;29;19915;-76
2023/01/27 16:00:36;;;;;;;;;;;5.70;1.00;;;;;;4952989;29;19965;-74
2023/01/27 16:03:13;;;;;;;;;;;5.70;1.00;;;;;;4946957;29;19918;-75
2023/01/27 16:05:51;;;;;;;;;;;5.70;1.00;;;;;;4949745;28;19981;-75
2023/01/27 16:08:19;;;;;;;;;;;5.70;1.00;;;;;;4956010;29;19915;-77
2023/01/27 16:10:49;;;;;;;;;;;5.70;1.00;;;;;;4995396;28;20312;-78
2023/01/27 16:13:31;;;;;;;;;;;5.70;1.00;;;;;;5036921;28;19909;-77
2023/01/27 16:16:15;;;;;;;;;;;5.70;1.00;;;;;;5036300;28;20283;-77
2023/01/27 16:19:01;;;;;;;;;;;5.70;1.00;;;;;;5036527;28;20323;-77
2023/01/27 16:21:48;;;;;;;;;;;5.70;1.00;;;;;;4946134;29;19919;-77
2023/01/27 16:24:43;;;;;;;;;;;5.70;1.00;;;;;;4920117;29;20030;-78
2023/01/27 16:27:19;;;;;;;;;;;5.70;1.00;;;;;;4934194;29;19911;-77
2023/01/27 16:30:09;;;;;;;;;;;5.70;1.00;;;;;;4936864;29;19910;-77
2023/01/27 16:32:56;;;;;;;;;;;5.70;1.00;;;;;;4931713;29;20294;-76
2023/01/27 16:35:55;;;;;;;;;;;5.70;1.00;;;;;;4936687;29;20363;-76
2023/01/27 16:38:47;;;;;;;;;;;5.70;1.00;;;;;;4936873;29;19917;-78
2023/01/27 16:41:20;;;;;;;;;;;5.60;1.00;;;;;;4929106;29;20255;-76
2023/01/27 16:44:07;;;;;;;;;;;5.60;1.00;;;;;;4917545;29;20065;-76
2023/01/27 16:46:38;;;;;;;;;;;5.60;1.00;;;;;;4919665;29;20450;-77
2023/01/27 16:49:12;;;;;;;;;;;5.50;1.00;;;;;;4935643;29;19930;-76
2023/01/27 16:51:55;;;;;;;;;;;5.50;1.00;;;;;;4935002;29;20335;-80
2023/01/27 16:54:43;;;;;;;;;;;5.50;1.00;;;;;;4934670;29;20005;-79
2023/01/27 16:57:39;;;;;;;;;;;5.50;1.00;;;;;;4936539;29;20012;-82
2023/01/27 17:00:16;;;;;;;;;;;5.50;1.00;;;;;;4955191;29;20462;-82
2023/01/27 17:03:01;;;;;;;;;;;5.50;1.00;;;;;;4952281;29;19917;-81
2023/01/27 17:05:31;;;;;;;;;;;5.50;1.00;;;;;;4943602;29;19915;-81
2023/01/27 17:08:15;;;;;;;;;;;5.50;1.00;;;;;;4949238;29;20441;-81
2023/01/27 17:10:50;;;;;;;;;;;5.40;1.00;;;;;;4950750;29;19921;-81
2023/01/27 17:13:27;;;;;;;;;;;5.50;1.00;;;;;;4955081;29;20632;-81
2023/01/27 17:15:53;;;;;;;;;;;5.50;1.00;;;;;;4951155;29;19919;-81
2023/01/27 17:18:20;;;;;;;;;;;5.40;1.00;;;;;;4936106;29;19958;-85
2023/01/27 17:21:01;;;;;;;;;;;5.40;1.00;;;;;;4939523;29;19918;-83
2023/01/27 17:23:43;;;;;;;;;;;5.40;1.00;;;;;;4933265;29;19919;-80
2023/01/27 17:26:15;;;;;;;;;;;5.50;1.00;;;;;;4950351;28;19919;-81
2023/01/27 17:28:45;;;;;;;;;;;5.50;1.00;;;;;;4951843;29;19911;-79
2023/01/27 17:34:31;;;;;;;;;;;5.50;1.00;;;;;;4954819;29;19959;-79
2023/01/27 17:37:27;;;;;;;;;;;5.50;1.00;;;;;;4980516;28;19916;-79
2023/01/27 17:40:04;;;;;;;;;;;5.50;1.00;;;;;;4955003;29;20296;-76
2023/01/27 17:42:37;;;;;;;;;;;5.50;1.00;;;;;;4954541;29;19911;-79
2023/01/27 17:45:25;;;;;;;;;;;5.50;1.00;;;;;;4954973;29;19917;-78
2023/01/27 17:47:51;;;;;;;;;;;5.50;1.00;;;;;;4955192;29;19911;-79
2023/01/27 17:50:43;;;;;;;;;;;5.50;1.00;;;;;;4938913;29;19918;-79
2023/01/27 17:53:27;;;;;;;;;;;5.40;1.00;;;;;;4954612;29;19998;-78
2023/01/27 17:56:13;;;;;;;;;;;5.50;1.00;;;;;;4954302;29;19918;-80
2023/01/27 17:59:13;;;;;;;;;;;5.40;1.00;;;;;;4941965;29;19910;-79
2023/01/27 18:02:01;;;;;;;;;;;5.40;1.00;;;;;;4953801;29;19921;-76
2023/01/27 18:04:49;;;;;;;;;;;5.40;1.00;;;;;;4954224;29;19915;-77
2023/01/27 18:07:19;;;;;;;;;;;5.40;1.00;;;;;;4954420;29;19918;-78
2023/01/27 18:10:20;;;;;;;;;;;5.40;1.00;;;;;;4953426;29;19926;-77
2023/01/27 18:12:46;;;;;;;;;;;5.40;1.00;;;;;;4941958;29;19922;-79
2023/01/27 18:15:30;;;;;;;;;;;5.40;1.00;;;;;;4958028;28;19970;-77
2023/01/27 18:17:56;;;;;;;;;;;5.30;1.00;;;;;;5034492;28;19921;-77
2023/01/27 18:20:26;;;;;;;;;;;5.30;1.00;;;;;;5034317;28;19909;-79
2023/01/27 18:23:07;;;;;;;;;;;5.30;1.00;;;;;;5034343;28;20027;-81
2023/01/27 18:25:33;;;;;;;;;;;5.20;1.00;;;;;;5016278;28;20311;-77
2023/01/27 18:27:58;;;;;;;;;;;5.20;1.00;;;;;;5034268;28;19909;-78
2023/01/27 18:30:25;;;;;;;;;;;5.20;1.00;;;;;;5033312;28;19936;-79
2023/01/27 18:33:25;;;;;;;;;;;5.20;1.00;;;;;;5016685;28;21524;-80
2023/01/27 18:36:13;;;;;;;;;;;5.10;1.00;;;;;;5020617;28;19927;-81
2023/01/27 18:38:45;;;;;;;;;;;5.20;1.00;;;;;;5023747;28;19952;-80
2023/01/27 18:41:23;;;;;;;;;;;5.10;1.00;;;;;;5005617;28;19910;-81
2023/01/27 18:44:01;;;;;;;;;;;5.00;1.00;;;;;;5034049;28;19909;-86
2023/01/27 18:46:31;;;;;;;;;;;5.00;1.00;;;;;;5009276;28;19918;-81
2023/01/27 18:49:25;;;;;;;;;;;5.00;1.00;;;;;;5014336;28;19913;-81
2023/01/27 18:51:55;;;;;;;;;;;5.00;1.00;;;;;;5018162;28;19909;-81
2023/01/27 18:54:31;;;;;;;;;;;5.00;1.00;;;;;;5033851;28;19913;-81
2023/01/27 19:00:19;;;;;;;;;;;4.90;1.00;;;;;;5033890;28;19915;-82
2023/01/27 19:02:46;;;;;;;;;;;5.00;1.00;;;;;;5033949;28;19916;-78
2023/01/27 19:05:43;;;;;;;;;;;5.00;1.00;;;;;;5033500;28;20001;-76
2023/01/27 19:08:14;;;;;;;;;;;5.00;1.00;;;;;;5033724;28;19916;-79
2023/01/27 19:11:01;;;;;;;;;;;5.00;1.00;;;;;;5033702;28;19909;-78